createdAt,value
2023-05-25T00:01:02.961Z,99.90
2023-05-25T00:03:31.469Z,99.90
2023-05-25T00:06:01.734Z,99.90
2023-05-25T00:08:29.543Z,99.90
2023-05-25T00:10:56.460Z,99.90
2023-05-25T00:13:23.208Z,99.90
2023-05-25T00:15:50.512Z,99.90
2023-05-25T00:18:18.368Z,99.90
2023-05-25T00:20:45.900Z,99.90
2023-05-25T00:23:12.841Z,99.90
2023-05-25T00:25:39.579Z,99.90
2023-05-25T00:28:07.339Z,99.90
2023-05-25T00:30:34.100Z,99.90
2023-05-25T00:33:01.885Z,99.90
2023-05-25T00:35:28.976Z,99.90
2023-05-25T00:37:55.943Z,99.90
2023-05-25T00:40:22.756Z,99.90
2023-05-25T00:42:50.620Z,99.90
2023-05-25T00:45:17.407Z,99.90
2023-05-25T00:47:45.572Z,99.90
2023-05-25T00:50:17.224Z,99.90
2023-05-25T00:52:44.073Z,99.90
2023-05-25T00:55:15.983Z,99.90
2023-05-25T00:57:46.052Z,99.90
2023-05-25T01:00:15.272Z,99.90
2023-05-25T01:02:44.319Z,99.90
2023-05-25T01:05:13.762Z,99.90
2023-05-25T01:07:43.923Z,99.90
2023-05-25T01:10:12.722Z,99.90
2023-05-25T01:12:43.311Z,99.90
2023-05-25T01:15:10.716Z,99.90
2023-05-25T01:17:38.247Z,99.90
2023-05-25T01:20:11.422Z,99.90
2023-05-25T01:22:55.456Z,99.90
2023-05-25T01:25:51.536Z,99.90
2023-05-25T01:28:25.083Z,99.90
2023-05-25T01:30:53.710Z,99.90
2023-05-25T01:33:21.594Z,99.90
2023-05-25T01:35:49.123Z,99.90
2023-05-25T01:38:15.992Z,99.90
2023-05-25T01:40:42.758Z,99.90
2023-05-25T01:43:09.462Z,99.90
2023-05-25T01:45:36.943Z,99.90
2023-05-25T01:48:12.969Z,99.90
2023-05-25T01:50:54.553Z,99.90
2023-05-25T01:53:30.036Z,99.90
2023-05-25T01:56:11.731Z,99.90
2023-05-25T01:58:50.725Z,99.90
2023-05-25T02:01:18.606Z,99.90
2023-05-25T02:03:49.189Z,99.90
2023-05-25T02:06:16.574Z,99.90
2023-05-25T02:08:44.285Z,99.90
2023-05-25T02:11:13.365Z,99.90
2023-05-25T02:13:40.794Z,99.90
2023-05-25T02:16:08.217Z,99.90
2023-05-25T02:18:35.194Z,99.90
2023-05-25T02:21:01.884Z,99.90
2023-05-25T02:23:28.578Z,99.90
2023-05-25T02:25:56.068Z,99.90
2023-05-25T02:28:22.790Z,99.90
2023-05-25T02:30:49.560Z,99.90
2023-05-25T02:33:19.658Z,99.90
2023-05-25T02:35:46.950Z,99.90
2023-05-25T02:38:16.424Z,99.90
2023-05-25T02:40:43.084Z,99.90
2023-05-25T02:43:10.051Z,99.90
2023-05-25T02:45:36.766Z,99.90
2023-05-25T02:48:04.115Z,99.90
2023-05-25T02:50:33.222Z,99.90
2023-05-25T02:52:59.973Z,99.90
2023-05-25T02:55:26.654Z,99.90
2023-05-25T02:57:53.497Z,99.90
2023-05-25T03:00:20.787Z,99.90
2023-05-25T03:02:48.952Z,99.90
2023-05-25T03:05:16.627Z,99.90
2023-05-25T03:07:43.514Z,99.90
2023-05-25T03:10:11.795Z,99.90
2023-05-25T03:12:38.525Z,99.90
2023-05-25T03:15:05.754Z,99.90
2023-05-25T03:17:32.629Z,99.90
2023-05-25T03:19:59.625Z,99.90
2023-05-25T03:22:27.166Z,99.90
2023-05-25T03:24:55.370Z,99.90
2023-05-25T03:27:22.048Z,99.90
2023-05-25T03:29:50.400Z,99.90
2023-05-25T03:32:17.568Z,99.90
2023-05-25T03:34:45.056Z,99.90
2023-05-25T03:37:12.042Z,99.90
2023-05-25T03:39:38.840Z,99.90
2023-05-25T03:42:06.451Z,99.90
2023-05-25T03:44:33.228Z,99.90
2023-05-25T03:47:00.333Z,99.90
2023-05-25T03:49:27.996Z,99.90
2023-05-25T03:51:54.962Z,99.90
2023-05-25T03:54:21.757Z,99.90
2023-05-25T03:59:32.902Z,99.90
2023-05-25T04:01:59.624Z,99.90
2023-05-25T04:04:28.149Z,99.90
2023-05-25T04:06:54.972Z,99.90
2023-05-25T04:09:21.698Z,99.90
2023-05-25T04:11:48.421Z,99.90
2023-05-25T04:14:15.162Z,99.90
2023-05-25T04:16:43.942Z,99.90
2023-05-25T04:19:12.690Z,99.90
2023-05-25T04:21:39.397Z,99.90
2023-05-25T04:24:07.686Z,99.90
2023-05-25T04:26:34.490Z,99.90
2023-05-25T04:29:02.403Z,99.90
2023-05-25T04:31:29.270Z,99.90
2023-05-25T04:33:56.324Z,99.90
2023-05-25T04:36:23.747Z,99.90
2023-05-25T04:38:52.160Z,99.90
2023-05-25T04:41:19.253Z,99.90
2023-05-25T04:43:57.268Z,99.90
2023-05-25T04:46:32.370Z,99.90
2023-05-25T04:48:59.217Z,99.90
2023-05-25T04:51:25.905Z,99.90
2023-05-25T04:53:52.697Z,99.90
2023-05-25T04:56:19.417Z,99.90
2023-05-25T04:58:47.301Z,99.90
2023-05-25T05:01:14.033Z,99.90
2023-05-25T05:03:40.932Z,99.90
2023-05-25T05:06:07.739Z,99.90
2023-05-25T05:08:34.773Z,99.90
2023-05-25T05:11:01.655Z,99.90
2023-05-25T05:13:28.413Z,99.90
2023-05-25T05:15:55.130Z,99.90
2023-05-25T05:18:21.987Z,99.90
2023-05-25T05:20:48.840Z,99.90
2023-05-25T05:23:15.601Z,99.90
2023-05-25T05:25:46.240Z,99.90
2023-05-25T05:28:13.189Z,99.90
2023-05-25T05:30:39.925Z,99.90
2023-05-25T05:33:06.749Z,99.90
2023-05-25T05:35:33.500Z,99.90
2023-05-25T05:38:00.254Z,99.90
2023-05-25T05:40:26.982Z,99.90
2023-05-25T05:42:59.736Z,99.90
2023-05-25T05:45:26.531Z,99.90
2023-05-25T05:47:53.452Z,99.90
2023-05-25T05:50:20.398Z,99.90
2023-05-25T05:52:48.045Z,99.90
2023-05-25T05:55:14.845Z,99.90
2023-05-25T05:57:41.726Z,99.90
2023-05-25T06:00:09.177Z,99.90
2023-05-25T06:02:37.000Z,99.90
2023-05-25T06:05:05.158Z,99.90
2023-05-25T06:07:38.212Z,99.90
2023-05-25T06:10:06.029Z,99.90
2023-05-25T06:12:32.819Z,99.90
2023-05-25T06:14:59.562Z,99.90
2023-05-25T06:17:26.528Z,99.90
2023-05-25T06:19:53.496Z,99.90
2023-05-25T06:22:20.460Z,99.90
2023-05-25T06:24:47.156Z,99.90
2023-05-25T06:27:13.874Z,99.90
2023-05-25T06:29:40.889Z,99.90
2023-05-25T06:32:07.901Z,99.90
2023-05-25T06:34:37.290Z,99.90
2023-05-25T06:37:06.055Z,99.90
2023-05-25T06:39:32.948Z,99.90
2023-05-25T06:41:59.690Z,99.90
2023-05-25T06:44:27.451Z,99.90
2023-05-25T06:46:54.184Z,99.90
2023-05-25T06:49:21.647Z,99.90
2023-05-25T06:51:49.028Z,99.90
2023-05-25T06:54:15.849Z,99.90
2023-05-25T06:56:42.584Z,99.90
2023-05-25T06:59:09.289Z,99.90
2023-05-25T07:01:36.860Z,99.90
2023-05-25T07:04:04.665Z,99.90
2023-05-25T07:06:31.396Z,99.90
2023-05-25T07:08:58.181Z,99.60
2023-05-25T07:11:25.053Z,99.90
2023-05-25T07:13:51.827Z,99.90
2023-05-25T07:16:18.576Z,99.90
2023-05-25T07:18:45.679Z,99.90
2023-05-25T07:21:12.477Z,99.90
2023-05-25T07:23:41.113Z,99.90
2023-05-25T07:26:08.539Z,99.90
2023-05-25T07:28:35.275Z,99.90
2023-05-25T07:31:02.028Z,99.90
2023-05-25T07:33:28.811Z,99.90
2023-05-25T07:35:55.726Z,99.90
2023-05-25T07:38:22.477Z,99.90
2023-05-25T07:40:50.016Z,99.90
2023-05-25T07:43:16.820Z,99.90
2023-05-25T07:45:43.974Z,99.90
2023-05-25T07:48:10.976Z,99.90
2023-05-25T07:50:37.788Z,99.90
2023-05-25T07:53:04.571Z,99.90
2023-05-25T07:55:31.360Z,99.90
2023-05-25T07:57:58.097Z,99.90
2023-05-25T08:00:25.260Z,99.90
2023-05-25T08:02:52.183Z,99.90
2023-05-25T08:05:18.982Z,99.90
2023-05-25T08:07:46.601Z,99.90
2023-05-25T08:10:13.461Z,99.90
2023-05-25T08:12:48.860Z,99.90
2023-05-25T08:15:16.813Z,99.90
2023-05-25T08:17:44.008Z,99.90
2023-05-25T08:20:11.572Z,99.90
2023-05-25T08:22:38.287Z,99.90
2023-05-25T08:25:05.392Z,99.90
2023-05-25T08:27:35.215Z,99.90
2023-05-25T08:30:02.672Z,99.90
2023-05-25T08:32:29.386Z,99.90
2023-05-25T08:34:56.120Z,99.90
2023-05-25T08:37:24.863Z,99.90
2023-05-25T08:39:51.581Z,99.90
2023-05-25T08:42:18.453Z,99.90
2023-05-25T08:44:45.435Z,99.90
2023-05-25T08:47:15.218Z,99.90
2023-05-25T08:49:44.454Z,99.90
2023-05-25T08:52:14.969Z,99.90
2023-05-25T08:54:44.372Z,99.90
2023-05-25T08:57:30.045Z,99.90
2023-05-25T09:00:13.038Z,99.90
2023-05-25T09:02:58.075Z,99.90
2023-05-25T09:05:24.811Z,99.90
2023-05-25T09:07:54.739Z,99.90
2023-05-25T09:10:22.472Z,99.90
2023-05-25T09:12:51.752Z,99.90
2023-05-25T09:15:18.777Z,99.90
2023-05-25T09:17:45.477Z,99.90
2023-05-25T09:20:15.772Z,99.90
2023-05-25T09:22:43.279Z,99.90
2023-05-25T09:25:11.756Z,99.90
2023-05-25T09:27:38.594Z,99.90
2023-05-25T09:30:06.621Z,99.90
2023-05-25T09:32:33.521Z,99.90
2023-05-25T09:35:12.272Z,99.90
2023-05-25T09:37:40.770Z,99.90
2023-05-25T09:40:09.229Z,99.90
2023-05-25T09:42:37.271Z,99.90
2023-05-25T09:45:05.757Z,99.90
2023-05-25T09:47:32.821Z,99.90
2023-05-25T09:50:01.313Z,99.90
2023-05-25T09:52:28.383Z,99.90
2023-05-25T09:54:57.456Z,99.90
2023-05-25T09:57:24.127Z,99.90
2023-05-25T09:59:50.992Z,99.90
2023-05-25T10:02:17.772Z,99.90
2023-05-25T10:04:44.600Z,99.90
2023-05-25T10:07:11.792Z,99.90
2023-05-25T10:09:43.369Z,99.90
2023-05-25T10:12:11.227Z,99.90
2023-05-25T10:14:39.270Z,99.90
2023-05-25T10:17:09.892Z,99.90
2023-05-25T10:19:43.157Z,99.90
2023-05-25T10:22:48.122Z,99.90
2023-05-25T10:25:34.771Z,99.90
2023-05-25T10:28:28.300Z,99.90
2023-05-25T10:30:57.787Z,99.90
2023-05-25T10:33:25.084Z,99.90
2023-05-25T10:36:03.109Z,99.90
2023-05-25T10:38:39.247Z,99.90
2023-05-25T10:41:06.338Z,99.90
2023-05-25T10:43:35.388Z,99.90
2023-05-25T10:46:02.608Z,99.90
2023-05-25T10:48:39.472Z,99.90
2023-05-25T10:51:08.854Z,99.90
2023-05-25T10:53:37.017Z,99.90
2023-05-25T10:56:06.394Z,99.90
2023-05-25T10:58:34.114Z,99.90
2023-05-25T11:01:09.977Z,99.90
2023-05-25T11:03:58.187Z,99.90
2023-05-25T11:06:37.562Z,99.90
2023-05-25T11:09:04.522Z,99.90
2023-05-25T11:11:43.335Z,99.90
2023-05-25T11:14:32.468Z,99.90
2023-05-25T11:17:20.782Z,99.90
2023-05-25T11:19:51.754Z,99.90
2023-05-25T11:22:21.322Z,99.90
2023-05-25T11:24:52.217Z,99.90
2023-05-25T11:27:28.090Z,99.90
2023-05-25T11:29:59.299Z,99.90
2023-05-25T11:32:27.268Z,99.90
2023-05-25T11:34:55.572Z,99.90
2023-05-25T11:37:24.910Z,99.90
2023-05-25T11:39:52.734Z,99.90
2023-05-25T11:42:21.693Z,99.90
2023-05-25T11:44:48.668Z,99.90
2023-05-25T11:47:18.827Z,99.90
2023-05-25T11:49:49.701Z,99.90
2023-05-25T11:52:18.114Z,99.90
2023-05-25T11:54:45.117Z,99.90
2023-05-25T11:57:25.695Z,99.90
2023-05-25T11:59:54.606Z,99.90
2023-05-25T12:02:22.622Z,99.90
2023-05-25T12:04:57.114Z,99.90
2023-05-25T12:07:28.712Z,99.90
2023-05-25T12:10:09.761Z,98.80
2023-05-25T12:12:52.245Z,99.90
2023-05-25T12:15:24.114Z,99.90
2023-05-25T12:17:52.094Z,98.70
2023-05-25T12:20:19.801Z,99.90
2023-05-25T12:22:47.463Z,99.90
2023-05-25T12:25:18.284Z,99.90
2023-05-25T12:27:45.078Z,99.90
2023-05-25T12:30:12.262Z,99.90
2023-05-25T12:33:03.832Z,99.90
2023-05-25T12:35:53.410Z,99.90
2023-05-25T12:38:21.902Z,99.90
2023-05-25T12:41:05.866Z,99.90
2023-05-25T12:43:43.776Z,99.90
2023-05-25T12:46:24.577Z,99.90
2023-05-25T12:48:52.146Z,99.90
2023-05-25T12:51:18.933Z,99.90
2023-05-25T12:53:52.282Z,99.90
2023-05-25T12:56:19.089Z,99.90
2023-05-25T12:58:45.814Z,99.90
2023-05-25T13:01:13.018Z,99.90
2023-05-25T13:03:39.859Z,99.90
2023-05-25T13:06:08.048Z,99.90
2023-05-25T13:08:34.751Z,99.90
2023-05-25T13:11:03.757Z,99.90
2023-05-25T13:13:30.570Z,99.90
2023-05-25T13:15:58.246Z,99.90
2023-05-25T13:18:25.059Z,99.90
2023-05-25T13:20:55.177Z,99.90
2023-05-25T13:23:23.396Z,99.90
2023-05-25T13:25:50.228Z,99.90
2023-05-25T13:28:16.931Z,99.90
2023-05-25T13:30:43.981Z,99.90
2023-05-25T13:33:10.936Z,99.90
2023-05-25T13:35:41.949Z,99.90
2023-05-25T13:38:10.508Z,99.10
2023-05-25T13:40:37.268Z,99.90
2023-05-25T13:43:04.053Z,99.70
2023-05-25T13:45:30.755Z,99.90
2023-05-25T13:47:57.718Z,99.10
2023-05-25T13:50:24.564Z,98.70
2023-05-25T13:52:52.936Z,99.60
2023-05-25T13:55:19.738Z,99.30
2023-05-25T13:57:46.576Z,97.40
2023-05-25T14:00:14.457Z,99.70
2023-05-25T14:02:41.601Z,97.40
2023-05-25T14:05:08.789Z,97.40
2023-05-25T14:07:35.820Z,97.50
2023-05-25T14:10:02.624Z,97.10
2023-05-25T14:12:29.356Z,99.10
2023-05-25T14:14:56.101Z,97.40
2023-05-25T14:17:23.806Z,97.00
2023-05-25T14:19:50.551Z,98.80
2023-05-25T14:22:17.364Z,96.40
2023-05-25T14:24:44.059Z,97.30
2023-05-25T14:27:11.919Z,96.90
2023-05-25T14:29:38.688Z,99.90
2023-05-25T14:32:05.509Z,97.60
2023-05-25T14:34:32.273Z,97.20
2023-05-25T14:36:59.010Z,99.90
2023-05-25T14:39:26.548Z,96.70
2023-05-25T14:41:53.343Z,97.00
2023-05-25T14:44:20.042Z,97.30
2023-05-25T14:46:46.850Z,96.50
2023-05-25T14:49:14.800Z,99.90
2023-05-25T14:51:41.523Z,98.00
2023-05-25T14:54:08.808Z,97.00
2023-05-25T14:56:35.575Z,99.40
2023-05-25T14:59:02.318Z,96.30
2023-05-25T15:01:33.134Z,95.90
2023-05-25T15:03:59.950Z,95.80
2023-05-25T15:06:26.756Z,94.80
2023-05-25T15:08:53.483Z,97.40
2023-05-25T15:11:20.215Z,97.50
2023-05-25T15:13:47.047Z,99.90
2023-05-25T15:16:15.773Z,95.50
2023-05-25T15:18:44.528Z,96.60
2023-05-25T15:21:11.520Z,96.70
2023-05-25T15:23:38.225Z,98.00
2023-05-25T15:26:07.534Z,98.20
2023-05-25T15:28:34.542Z,97.40
2023-05-25T15:31:02.849Z,96.80
2023-05-25T15:33:44.474Z,97.30
2023-05-25T15:36:16.655Z,97.10
2023-05-25T15:38:44.429Z,96.00
2023-05-25T15:41:15.195Z,97.80
2023-05-25T15:43:42.194Z,99.90
2023-05-25T15:46:08.960Z,98.60
2023-05-25T15:48:35.780Z,98.10
2023-05-25T15:51:02.529Z,99.90
2023-05-25T15:53:30.411Z,99.90
2023-05-25T15:55:57.420Z,99.90
2023-05-25T15:58:24.112Z,99.30
2023-05-25T16:00:50.791Z,99.90
2023-05-25T16:03:17.713Z,99.90
2023-05-25T16:05:44.597Z,99.90
2023-05-25T16:08:13.900Z,99.60
2023-05-25T16:10:41.639Z,99.90
2023-05-25T16:13:08.333Z,99.90
2023-05-25T16:15:35.080Z,99.90
2023-05-25T16:18:01.837Z,99.90
2023-05-25T16:20:28.721Z,99.90
2023-05-25T16:22:55.626Z,99.90
2023-05-25T16:25:22.407Z,99.90
2023-05-25T16:27:49.193Z,99.90
2023-05-25T16:30:16.192Z,99.90
2023-05-25T16:32:42.957Z,99.90
2023-05-25T16:35:09.892Z,99.90
2023-05-25T16:37:36.599Z,99.90
2023-05-25T16:40:03.363Z,99.90
2023-05-25T16:42:30.118Z,99.90
2023-05-25T16:44:56.899Z,99.90
2023-05-25T16:47:23.610Z,99.90
2023-05-25T16:49:50.424Z,99.90
2023-05-25T16:52:17.155Z,99.90
2023-05-25T16:54:43.881Z,99.90
2023-05-25T16:57:12.047Z,99.90
2023-05-25T16:59:39.415Z,99.90
2023-05-25T17:02:06.575Z,99.90
2023-05-25T17:04:33.393Z,99.90
2023-05-25T17:07:00.201Z,99.90
2023-05-25T17:09:26.921Z,99.90
2023-05-25T17:11:54.120Z,99.90
2023-05-25T17:14:21.548Z,99.90
2023-05-25T17:16:48.383Z,99.90
2023-05-25T17:19:15.265Z,99.90
2023-05-25T17:21:42.441Z,99.90
2023-05-25T17:24:09.302Z,99.90
2023-05-25T17:26:36.096Z,99.90
2023-05-25T17:29:02.879Z,99.90
2023-05-25T17:31:29.689Z,99.90
2023-05-25T17:33:56.828Z,99.90
2023-05-25T17:36:23.899Z,99.90
2023-05-25T17:38:51.615Z,99.90
2023-05-25T17:41:18.387Z,99.90
2023-05-25T17:43:46.338Z,99.90
2023-05-25T17:46:13.143Z,99.90
2023-05-25T17:48:39.943Z,99.90
2023-05-25T17:51:06.667Z,99.90
2023-05-25T17:53:33.390Z,99.90
2023-05-25T17:56:00.128Z,99.90
2023-05-25T17:58:27.881Z,99.90
2023-05-25T18:00:54.686Z,99.90
2023-05-25T18:03:21.672Z,99.90
2023-05-25T18:05:48.506Z,99.90
2023-05-25T18:08:15.187Z,99.90
2023-05-25T18:10:41.958Z,99.90
2023-05-25T18:13:08.733Z,99.90
2023-05-25T18:15:35.483Z,99.90
2023-05-25T18:18:03.785Z,99.90
2023-05-25T18:20:30.904Z,99.90
2023-05-25T18:22:59.334Z,99.90
2023-05-25T18:25:26.262Z,99.90
2023-05-25T18:27:52.999Z,99.90
2023-05-25T18:30:19.739Z,99.90
2023-05-25T18:32:46.580Z,99.90
2023-05-25T18:35:13.323Z,99.90
2023-05-25T18:37:41.199Z,99.90
2023-05-25T18:40:08.753Z,99.90
2023-05-25T18:42:35.502Z,99.90
2023-05-25T18:45:02.403Z,99.90
2023-05-25T18:47:29.304Z,99.90
2023-05-25T18:49:56.507Z,99.90
2023-05-25T18:52:23.528Z,99.90
2023-05-25T18:54:50.482Z,99.90
2023-05-25T18:57:17.190Z,99.90
2023-05-25T18:59:43.882Z,99.90
2023-05-25T19:02:10.990Z,99.90
2023-05-25T19:04:37.836Z,99.90
2023-05-25T19:07:04.823Z,99.90
2023-05-25T19:09:31.894Z,99.90
2023-05-25T19:11:58.701Z,99.90
2023-05-25T19:14:25.509Z,99.90
2023-05-25T19:16:52.422Z,99.90
2023-05-25T19:19:19.250Z,99.90
2023-05-25T19:21:45.985Z,99.90
2023-05-25T19:24:12.820Z,99.90
2023-05-25T19:26:39.533Z,99.90
2023-05-25T19:29:06.317Z,99.90
2023-05-25T19:31:33.166Z,99.90
2023-05-25T19:33:59.876Z,99.90
2023-05-25T19:36:27.250Z,99.90
2023-05-25T19:38:53.985Z,99.90
2023-05-25T19:41:21.226Z,99.90
2023-05-25T19:43:47.985Z,99.90
2023-05-25T19:46:14.690Z,99.90
2023-05-25T19:48:41.608Z,99.90
2023-05-25T19:51:08.482Z,99.90
2023-05-25T19:53:35.371Z,99.90
2023-05-25T19:56:03.409Z,99.90
2023-05-25T19:58:30.132Z,99.90
2023-05-25T20:00:57.189Z,99.90
2023-05-25T20:03:24.150Z,99.90
2023-05-25T20:05:50.912Z,99.90
2023-05-25T20:08:17.735Z,99.90
2023-05-25T20:10:45.173Z,99.90
2023-05-25T20:13:12.936Z,99.90
2023-05-25T20:15:39.753Z,99.90
2023-05-25T20:18:06.573Z,99.90
2023-05-25T20:20:33.339Z,99.90
2023-05-25T20:23:01.494Z,99.90
2023-05-25T20:25:28.707Z,99.90
2023-05-25T20:27:55.473Z,99.90
2023-05-25T20:30:22.285Z,99.90
2023-05-25T20:32:49.297Z,99.90
2023-05-25T20:35:17.443Z,99.90
2023-05-25T20:37:44.261Z,99.90
2023-05-25T20:40:11.245Z,99.90
2023-05-25T20:42:37.980Z,99.90
2023-05-25T20:45:05.217Z,99.90
2023-05-25T20:47:32.072Z,99.90
2023-05-25T20:49:58.798Z,99.90
2023-05-25T20:52:25.612Z,99.90
2023-05-25T20:54:52.328Z,99.90
2023-05-25T20:57:19.043Z,99.90
2023-05-25T20:59:45.789Z,99.90
2023-05-25T21:02:12.484Z,99.90
2023-05-25T21:04:39.262Z,99.90
2023-05-25T21:07:06.449Z,99.90
2023-05-25T21:09:33.127Z,99.90
2023-05-25T21:11:59.915Z,99.90
2023-05-25T21:14:26.641Z,99.90
2023-05-25T21:16:54.664Z,99.90
2023-05-25T21:19:21.352Z,99.90
2023-05-25T21:21:48.140Z,99.90
2023-05-25T21:24:14.838Z,99.90
2023-05-25T21:26:41.689Z,99.90
2023-05-25T21:29:08.438Z,99.90
2023-05-25T21:31:35.231Z,99.90
2023-05-25T21:34:02.084Z,99.90
2023-05-25T21:36:28.899Z,99.90
2023-05-25T21:38:55.741Z,99.90
2023-05-25T21:41:23.346Z,99.90
2023-05-25T21:43:50.774Z,99.90
2023-05-25T21:46:17.593Z,99.90
2023-05-25T21:48:44.292Z,99.90
2023-05-25T21:51:11.160Z,99.90
2023-05-25T21:53:37.904Z,99.90
2023-05-25T21:56:04.628Z,99.90
2023-05-25T21:58:31.290Z,99.90
2023-05-25T22:00:58.030Z,99.90
2023-05-25T22:03:24.884Z,99.90
2023-05-25T22:05:51.663Z,99.90
2023-05-25T22:08:18.370Z,99.90
2023-05-25T22:10:45.305Z,99.90
2023-05-25T22:13:11.980Z,99.90
2023-05-25T22:15:38.735Z,99.90
2023-05-25T22:18:06.289Z,99.90
2023-05-25T22:20:33.275Z,99.90
2023-05-25T22:23:00.038Z,99.90
2023-05-25T22:25:26.758Z,99.90
2023-05-25T22:27:53.528Z,99.90
2023-05-25T22:30:20.346Z,99.90
2023-05-25T22:32:52.127Z,99.90
2023-05-25T22:35:18.978Z,99.90
2023-05-25T22:37:45.661Z,99.90
2023-05-25T22:40:12.896Z,99.90
2023-05-25T22:42:39.588Z,99.90
2023-05-25T22:45:06.857Z,99.90
2023-05-25T22:47:33.576Z,99.90
2023-05-25T22:50:00.390Z,99.90
2023-05-25T22:52:27.147Z,99.90
2023-05-25T22:54:53.838Z,99.90
2023-05-25T22:57:20.632Z,99.90
2023-05-25T22:59:47.365Z,99.90
2023-05-25T23:02:14.132Z,99.90
2023-05-25T23:04:41.049Z,99.90
2023-05-25T23:07:07.748Z,99.90
2023-05-25T23:09:34.433Z,99.90
2023-05-25T23:12:01.695Z,99.90
2023-05-25T23:14:30.309Z,99.90
2023-05-25T23:16:56.990Z,99.90
2023-05-25T23:19:25.785Z,99.90
2023-05-25T23:21:52.553Z,99.90
2023-05-25T23:24:19.312Z,99.90
2023-05-25T23:26:46.134Z,99.90
2023-05-25T23:29:12.998Z,99.90
2023-05-25T23:31:39.849Z,99.90
2023-05-25T23:34:06.567Z,99.90
2023-05-25T23:36:33.799Z,99.90
2023-05-25T23:39:00.752Z,99.90
2023-05-25T23:41:28.179Z,99.90
2023-05-25T23:43:54.866Z,99.90
2023-05-25T23:46:21.554Z,99.90
2023-05-25T23:48:48.332Z,99.90
2023-05-25T23:51:15.065Z,99.90
2023-05-25T23:53:41.881Z,99.90
2023-05-25T23:56:08.669Z,99.90
2023-05-25T23:58:35.662Z,99.90
